PWSweather.com
Personal Weather Stations
Station Observations
INORDPAS37
Bondues, BonduesFR 59910

BonduesBonduesFR 59910

Lat: 50.7, Lon: 3.09

Elevation: 66

Station Type: NetAtmo

High Low Average
Temperature 46.2°F7.9°F 35.2°F1.8°F 41.6°F5.3°F
Dew Point 37.9°F3.3°F 27.0°F-2.8°F 33.0°F0.6°F
Winds 10.5 mph SW16.9 mph SW 2.5 mph 4.0 mph 6.5 mph 10.5 mph
Wind Gusts 28.6 mph46.0 mph -- 14.4 mph23.2 mph
Humidity 78% 74% 77%
Pressure 29.89 in1012.20 in 29.26 in990.90 in -
Precipitation 1.24 in31.50 in - -
Hour Temp Dew Point Humidity Winds Wind Gusts Pressure Precip Precip Rate Daily Precip Total
12:01 AM 35.2°F1.8°C 27.0°F-2.8°C 77% 3.1 mph S5.0 kmh S 6.9 mph11.1 kmh 29.89 in1012.2 mb 0.00 in0.0 mm 0.24 in6.1 mm 0.00 in0.0 mm
12:22 AM 35.8°F2.1°C 27.5°F-2.5°C 77% 2.5 mph S4.0 kmh S 6.9 mph11.1 kmh 29.89 in1012.2 mb 0.00 in0.0 mm 0.00 in0.0 mm 0.00 in0.0 mm
12:42 AM 36.0°F2.2°C 27.7°F-2.4°C 77% 3.8 mph SSW6.1 kmh SSW 9.8 mph15.8 kmh 29.88 in1011.9 mb 0.01 in0.3 mm 0.01 in0.3 mm 0.01 in0.3 mm
01:02 AM 36.3°F2.4°C 28.0°F-2.2°C 77% 4.3 mph SSW6.9 kmh SSW 8.1 mph13.0 kmh 29.88 in1011.9 mb 0.00 in0.0 mm 0.00 in0.0 mm 0.01 in0.3 mm
01:22 AM 36.5°F2.5°C 28.2°F-2.1°C 77% 3.8 mph SSW6.1 kmh SSW 8.7 mph14.0 kmh 29.86 in1011.2 mb 0.00 in0.0 mm 0.00 in0.0 mm 0.01 in0.3 mm
01:43 AM 36.5°F2.5°C 28.2°F-2.1°C 77% 4.3 mph SSW6.9 kmh SSW 10.5 mph16.9 kmh 29.86 in1011.2 mb 0.00 in0.0 mm 0.00 in0.0 mm 0.01 in0.3 mm
02:03 AM 36.5°F2.5°C 28.2°F-2.1°C 77% 4.3 mph S6.9 kmh S 10.5 mph16.9 kmh 29.84 in1010.5 mb 0.00 in0.0 mm 0.00 in0.0 mm 0.01 in0.3 mm
02:23 AM 36.5°F2.5°C 28.2°F-2.1°C 77% 4.3 mph SSW6.9 kmh SSW 9.4 mph15.1 kmh 29.83 in1010.2 mb 0.00 in0.0 mm 0.00 in0.0 mm 0.01 in0.3 mm
02:44 AM 36.7°F2.6°C 28.4°F-2.0°C 77% 3.8 mph SSW6.1 kmh SSW 8.7 mph14.0 kmh 29.83 in1010.2 mb 0.00 in0.0 mm 0.00 in0.0 mm 0.02 in0.5 mm
03:03 AM 36.9°F2.7°C 28.6°F-1.9°C 77% 4.9 mph SW7.9 kmh SW 11.9 mph19.2 kmh 29.82 in1009.8 mb 0.00 in0.0 mm 0.00 in0.0 mm 0.02 in0.5 mm
03:24 AM 37.4°F3.0°C 29.1°F-1.6°C 77% 3.8 mph SSW6.1 kmh SSW 9.4 mph15.1 kmh 29.81 in1009.5 mb 0.00 in0.0 mm 0.00 in0.0 mm 0.02 in0.5 mm
03:43 AM 37.8°F3.2°C 29.5°F-1.4°C 77% 3.8 mph S6.1 kmh S 8.1 mph13.0 kmh 29.80 in1009.1 mb 0.00 in0.0 mm 0.00 in0.0 mm 0.02 in0.5 mm
04:04 AM 38.3°F3.5°C 29.8°F-1.2°C 77% 5.6 mph SW9.0 kmh SW 15.0 mph24.1 kmh 29.80 in1009.1 mb 0.00 in0.0 mm 0.01 in0.3 mm 0.02 in0.5 mm
04:24 AM 38.5°F3.6°C 30.0°F-1.1°C 77% 4.3 mph SW6.9 kmh SW 11.9 mph19.2 kmh 29.78 in1008.5 mb 0.00 in0.0 mm 0.00 in0.0 mm 0.02 in0.5 mm
04:48 AM 38.3°F3.5°C 29.8°F-1.2°C 77% 3.8 mph SSW6.1 kmh SSW 9.4 mph15.1 kmh 29.76 in1007.8 mb 0.01 in0.3 mm 0.02 in0.5 mm 0.03 in0.8 mm
05:09 AM 38.5°F3.6°C 30.0°F-1.1°C 77% 4.3 mph SSW6.9 kmh SSW 14.3 mph23.0 kmh 29.75 in1007.5 mb 0.01 in0.3 mm 0.00 in0.0 mm 0.03 in0.8 mm
05:28 AM 38.7°F3.7°C 30.2°F-1.0°C 77% 4.3 mph SSW6.9 kmh SSW 11.9 mph19.2 kmh 29.73 in1006.8 mb 0.01 in0.3 mm 0.00 in0.0 mm 0.03 in0.8 mm
05:49 AM 38.8°F3.8°C 30.4°F-0.9°C 77% 6.9 mph SSW11.1 kmh SSW 12.5 mph20.1 kmh 29.71 in1006.1 mb 0.01 in0.3 mm 0.01 in0.3 mm 0.04 in1.0 mm
06:09 AM 39.0°F3.9°C 30.6°F-0.8°C 77% 4.3 mph S6.9 kmh S 10.5 mph16.9 kmh 29.69 in1005.4 mb 0.01 in0.3 mm 0.00 in0.0 mm 0.04 in1.0 mm
06:35 AM 39.2°F4.0°C 30.7°F-0.7°C 77% 4.9 mph SSW7.9 kmh SSW 11.2 mph18.0 kmh 29.69 in1005.4 mb 0.01 in0.3 mm 0.00 in0.0 mm 0.04 in1.0 mm
06:55 AM 39.6°F4.2°C 31.1°F-0.5°C 77% 6.9 mph SSW11.1 kmh SSW 14.3 mph23.0 kmh 29.68 in1005.1 mb 0.01 in0.3 mm 0.00 in0.0 mm 0.05 in1.3 mm
07:15 AM 39.7°F4.3°C 31.3°F-0.4°C 77% 5.6 mph SSW9.0 kmh SSW 11.9 mph19.2 kmh 29.67 in1004.7 mb 0.01 in0.3 mm 0.00 in0.0 mm 0.05 in1.3 mm
07:24 AM 39.9°F4.4°C 31.5°F-0.3°C 77% 4.9 mph SSW7.9 kmh SSW 11.9 mph19.2 kmh 29.65 in1004.1 mb 0.02 in0.5 mm 0.05 in1.3 mm 0.06 in1.5 mm
07:44 AM 40.1°F4.5°C 31.6°F-0.2°C 77% 7.4 mph SSW11.9 kmh SSW 22.4 mph36.0 kmh 29.65 in1004.1 mb 0.02 in0.5 mm 0.00 in0.0 mm 0.06 in1.5 mm
08:05 AM 40.3°F4.6°C 31.8°F-0.1°C 77% 5.6 mph SSW9.0 kmh SSW 18.6 mph29.9 kmh 29.63 in1003.4 mb 0.01 in0.3 mm 0.00 in0.0 mm 0.06 in1.5 mm
08:24 AM 40.3°F4.6°C 31.8°F-0.1°C 77% 6.9 mph SSW11.1 kmh SSW 15.4 mph24.8 kmh 29.62 in1003.0 mb 0.00 in0.0 mm 0.00 in0.0 mm 0.06 in1.5 mm
08:45 AM 40.3°F4.6°C 31.8°F-0.1°C 77% 4.9 mph SSW7.9 kmh SSW 12.5 mph20.1 kmh 29.61 in1002.7 mb 0.00 in0.0 mm 0.00 in0.0 mm 0.06 in1.5 mm
09:01 AM 40.5°F4.7°C 32.0°F0.0°C 77% 4.9 mph SSW7.9 kmh SSW 11.2 mph18.0 kmh 29.60 in1002.4 mb 0.01 in0.3 mm 0.02 in0.5 mm 0.08 in2.0 mm
09:22 AM 40.5°F4.7°C 32.0°F0.0°C 77% 8.1 mph SW13.0 kmh SW 18.1 mph29.1 kmh 29.60 in1002.4 mb 0.02 in0.5 mm 0.01 in0.3 mm 0.08 in2.0 mm
09:41 AM 40.8°F4.9°C 32.4°F0.2°C 77% 9.4 mph SW15.1 kmh SW 16.8 mph27.0 kmh 29.59 in1002.0 mb 0.02 in0.5 mm 0.00 in0.0 mm 0.08 in2.0 mm
10:02 AM 41.2°F5.1°C 32.7°F0.4°C 77% 8.7 mph SW14.0 kmh SW 16.1 mph25.9 kmh 29.59 in1002.0 mb 0.00 in0.0 mm 0.00 in0.0 mm 0.08 in2.0 mm
10:22 AM 41.7°F5.4°C 33.3°F0.7°C 77% 8.1 mph SW13.0 kmh SW 17.4 mph28.0 kmh 29.58 in1001.7 mb 0.00 in0.0 mm 0.01 in0.3 mm 0.08 in2.0 mm
10:42 AM 42.3°F5.7°C 33.8°F1.0°C 77% 10.5 mph SW16.9 kmh SW 21.7 mph34.9 kmh 29.59 in1002.0 mb 0.00 in0.0 mm 0.00 in0.0 mm 0.08 in2.0 mm
11:03 AM 43.0°F6.1°C 34.5°F1.4°C 77% 9.8 mph SW15.8 kmh SW 16.1 mph25.9 kmh 29.59 in1002.0 mb 0.00 in0.0 mm 0.00 in0.0 mm 0.08 in2.0 mm
11:22 AM 43.2°F6.2°C 34.7°F1.5°C 77% 10.5 mph WSW16.9 kmh WSW 19.9 mph32.0 kmh 29.59 in1002.0 mb 0.00 in0.0 mm 0.00 in0.0 mm 0.08 in2.0 mm
11:43 AM 43.3°F6.3°C 34.9°F1.6°C 77% 8.7 mph WSW14.0 kmh WSW 16.1 mph25.9 kmh 29.57 in1001.4 mb 0.00 in0.0 mm 0.00 in0.0 mm 0.08 in2.0 mm
12:03 PM 43.7°F6.5°C 35.2°F1.8°C 77% 7.4 mph WSW11.9 kmh WSW 13.6 mph21.9 kmh 29.57 in1001.4 mb 0.00 in0.0 mm 0.00 in0.0 mm 0.08 in2.0 mm
12:23 PM 44.2°F6.8°C 35.6°F2.0°C 77% 6.9 mph WSW11.1 kmh WSW 14.3 mph23.0 kmh 29.57 in1001.4 mb 0.00 in0.0 mm 0.00 in0.0 mm 0.08 in2.0 mm
12:43 PM 44.4°F6.9°C 35.8°F2.1°C 77% 7.4 mph SW11.9 kmh SW 13.6 mph21.9 kmh 29.55 in1000.7 mb 0.00 in0.0 mm 0.00 in0.0 mm 0.08 in2.0 mm
01:03 PM 44.6°F7.0°C 36.0°F2.2°C 77% 8.7 mph SW14.0 kmh SW 16.8 mph27.0 kmh 29.55 in1000.7 mb 0.00 in0.0 mm 0.00 in0.0 mm 0.08 in2.0 mm
01:25 PM 45.0°F7.2°C 36.3°F2.4°C 77% 6.9 mph SW11.1 kmh SW 15.4 mph24.8 kmh 29.54 in1000.3 mb 0.01 in0.3 mm 0.03 in0.8 mm 0.10 in2.5 mm
01:45 PM 45.0°F7.2°C 36.3°F2.4°C 77% 8.1 mph SW13.0 kmh SW 18.6 mph29.9 kmh 29.53 in1000.0 mb 0.02 in0.5 mm 0.01 in0.3 mm 0.10 in2.5 mm
02:04 PM 45.0°F7.2°C 36.3°F2.4°C 77% 6.9 mph WSW11.1 kmh WSW 14.3 mph23.0 kmh 29.51 in999.3 mb 0.02 in0.5 mm 0.01 in0.3 mm 0.11 in2.8 mm
02:25 PM 44.8°F7.1°C 36.1°F2.3°C 77% 6.9 mph SW11.1 kmh SW 14.3 mph23.0 kmh 29.50 in999.0 mb 0.02 in0.5 mm 0.00 in0.0 mm 0.11 in2.8 mm
02:43 PM 44.8°F7.1°C 36.1°F2.3°C 77% 10.5 mph SW16.9 kmh SW 28.6 mph46.0 kmh 29.49 in998.6 mb 0.02 in0.5 mm 0.03 in0.8 mm 0.12 in3.0 mm
03:03 PM 45.0°F7.2°C 36.3°F2.4°C 77% 9.4 mph SW15.1 kmh SW 19.9 mph32.0 kmh 29.47 in998.0 mb 0.02 in0.5 mm 0.00 in0.0 mm 0.13 in3.3 mm
03:24 PM 45.0°F7.2°C 36.3°F2.4°C 77% 7.4 mph SW11.9 kmh SW 16.8 mph27.0 kmh 29.46 in997.6 mb 0.02 in0.5 mm 0.00 in0.0 mm 0.13 in3.3 mm
03:44 PM 45.0°F7.2°C 36.3°F2.4°C 77% 8.7 mph SW14.0 kmh SW 20.6 mph33.2 kmh 29.45 in997.3 mb 0.01 in0.3 mm 0.00 in0.0 mm 0.13 in3.3 mm
04:06 PM 45.1°F7.3°C 36.5°F2.5°C 77% 9.4 mph SW15.1 kmh SW 23.0 mph37.0 kmh 29.43 in996.6 mb 0.01 in0.3 mm 0.00 in0.0 mm 0.14 in3.6 mm
04:25 PM 45.1°F7.3°C 36.5°F2.5°C 77% 10.5 mph SW16.9 kmh SW 24.8 mph39.9 kmh 29.41 in995.9 mb 0.02 in0.5 mm 0.03 in0.8 mm 0.15 in3.8 mm
04:46 PM 45.3°F7.4°C 36.7°F2.6°C 77% 6.9 mph NNW11.1 kmh NNW 15.0 mph24.1 kmh 29.39 in995.3 mb 0.04 in1.0 mm 0.07 in1.8 mm 0.17 in4.3 mm
05:02 PM 45.3°F7.4°C 36.7°F2.6°C 77% 4.9 mph NW7.9 kmh NW 17.4 mph28.0 kmh 29.38 in994.9 mb 0.05 in1.3 mm 0.01 in0.3 mm 0.19 in4.8 mm
05:28 PM 45.5°F7.5°C 36.9°F2.7°C 77% 5.6 mph N9.0 kmh N 21.0 mph33.8 kmh 29.34 in993.6 mb 0.04 in1.0 mm 0.00 in0.0 mm 0.19 in4.8 mm
05:48 PM 45.7°F7.6°C 37.0°F2.8°C 77% 6.9 mph WSW11.1 kmh WSW 11.2 mph18.0 kmh 29.33 in993.2 mb 0.04 in1.0 mm 0.00 in0.0 mm 0.21 in5.3 mm
06:08 PM 45.7°F7.6°C 37.0°F2.8°C 77% - N16091.8 kmh N -- 29.32 in992.9 mb 0.08 in2.0 mm 0.06 in1.5 mm 0.26 in6.6 mm
06:28 PM 45.9°F7.7°C 37.6°F3.1°C 78% 8.7 mph NW14.0 kmh NW 10.5 mph16.9 kmh 29.31 in992.6 mb 0.13 in3.3 mm 0.17 in4.3 mm 0.32 in8.1 mm
06:46 PM 45.9°F7.7°C 37.2°F2.9°C 77% 8.1 mph W13.0 kmh W 24.8 mph39.9 kmh 29.29 in991.9 mb 0.15 in3.8 mm 0.05 in1.3 mm 0.35 in8.9 mm
07:06 PM 45.9°F7.7°C 37.6°F3.1°C 78% 7.4 mph WSW11.9 kmh WSW 14.3 mph23.0 kmh 29.27 in991.2 mb 0.10 in2.5 mm 0.00 in0.0 mm 0.36 in9.1 mm
07:27 PM 46.2°F7.9°C 37.9°F3.3°C 78% 8.1 mph NW13.0 kmh NW 17.4 mph28.0 kmh 29.26 in990.9 mb 0.04 in1.0 mm 0.00 in0.0 mm 0.36 in9.1 mm
07:46 PM 46.2°F7.9°C 37.9°F3.3°C 78% 8.7 mph WNW14.0 kmh WNW 18.6 mph29.9 kmh 29.28 in991.5 mb 0.06 in1.5 mm 0.06 in1.5 mm 0.41 in10.4 mm
08:07 PM 45.3°F7.4°C 36.7°F2.6°C 77% 8.7 mph W14.0 kmh W 17.4 mph28.0 kmh 29.28 in991.5 mb 0.06 in1.5 mm 0.00 in0.0 mm 0.42 in10.7 mm
08:27 PM 44.6°F7.0°C 36.0°F2.2°C 77% 8.7 mph W14.0 kmh W 19.9 mph32.0 kmh 29.29 in991.9 mb 0.06 in1.5 mm 0.00 in0.0 mm 0.42 in10.7 mm
08:46 PM 44.2°F6.8°C 35.6°F2.0°C 77% 9.4 mph WSW15.1 kmh WSW 18.1 mph29.1 kmh 29.30 in992.2 mb 0.00 in0.0 mm 0.00 in0.0 mm 0.42 in10.7 mm
09:03 PM 43.9°F6.6°C 35.4°F1.9°C 77% 9.4 mph WNW15.1 kmh WNW 23.0 mph37.0 kmh 29.31 in992.6 mb 0.00 in0.0 mm 0.00 in0.0 mm 0.42 in10.7 mm
09:35 PM 43.5°F6.4°C 34.7°F1.5°C 76% 8.7 mph WSW14.0 kmh WSW 21.7 mph34.9 kmh 29.31 in992.6 mb 0.00 in0.0 mm 0.00 in0.0 mm 0.42 in10.7 mm
09:55 PM 42.4°F5.8°C 32.9°F0.5°C 74% 8.7 mph W14.0 kmh W 21.7 mph34.9 kmh 29.32 in992.9 mb 0.00 in0.0 mm 0.00 in0.0 mm 0.42 in10.7 mm
10:15 PM 41.5°F5.3°C 32.0°F0.0°C 74% 4.9 mph WSW7.9 kmh WSW 12.5 mph20.1 kmh 29.32 in992.9 mb 0.00 in0.0 mm 0.00 in0.0 mm 0.42 in10.7 mm
10:35 PM 40.8°F4.9°C 31.3°F-0.4°C 74% 4.9 mph W7.9 kmh W 8.7 mph14.0 kmh 29.31 in992.6 mb 0.00 in0.0 mm 0.00 in0.0 mm 0.42 in10.7 mm
10:41 PM 40.3°F4.6°C 31.1°F-0.5°C 75% 3.1 mph WSW5.0 kmh WSW 6.9 mph11.1 kmh 29.30 in992.2 mb 0.00 in0.0 mm 0.00 in0.0 mm 0.42 in10.7 mm
11:15 PM 39.7°F4.3°C 30.6°F-0.8°C 75% 2.5 mph SW4.0 kmh SW 4.9 mph7.9 kmh 29.30 in992.2 mb 0.00 in0.0 mm 0.00 in0.0 mm 0.42 in10.7 mm
11:26 PM 39.4°F4.1°C 30.2°F-1.0°C 75% 3.1 mph SW5.0 kmh SW 6.9 mph11.1 kmh 29.28 in991.5 mb 0.00 in0.0 mm 0.00 in0.0 mm 0.42 in10.7 mm
11:46 PM 39.6°F4.2°C 30.4°F-0.9°C 75% 3.1 mph SW5.0 kmh SW 5.6 mph9.0 kmh 29.26 in990.9 mb 0.00 in0.0 mm 0.00 in0.0 mm 0.42 in10.7 mm